Terminal Aerodrome Forecast
Issued by NWS Lake Charles, LA

Home | Current Version | Previous Version | Text Only | Print | Product List | Glossary On
Versions: 1 2 3 4 5 6 7 8 9 10 11 12 13 14 15
399
FTUS44 KLCH 251753
TAFBPT
TAF
KBPT 251753Z 2518/2618 24008KT P6SM SKC
     FM260100 28008KT P6SM BKN025
     FM260700 34010KT P6SM VCSH BKN025
     FM261400 34010KT P6SM SKC=

USA.gov is the U.S. government's official web portal to all federal, state and local government web resources and services.